sensor_id;sensor_type;location;lat;lon;timestamp;temperature;humidity
79494;SHT31;68951;53.130;18.104;2023-08-20T00:02:13;22.58;72.24
79494;SHT31;68951;53.130;18.104;2023-08-20T00:04:41;22.56;72.30
79494;SHT31;68951;53.130;18.104;2023-08-20T00:07:12;22.56;72.30
79494;SHT31;68951;53.130;18.104;2023-08-20T00:09:39;22.53;72.30
79494;SHT31;68951;53.130;18.104;2023-08-20T00:12:06;22.47;72.36
79494;SHT31;68951;53.130;18.104;2023-08-20T00:14:51;22.42;72.42
79494;SHT31;68951;53.130;18.104;2023-08-20T00:17:22;22.39;72.50
79494;SHT31;68951;53.130;18.104;2023-08-20T00:19:54;22.39;72.52
79494;SHT31;68951;53.130;18.104;2023-08-20T00:22:22;22.36;72.59
79494;SHT31;68951;53.130;18.104;2023-08-20T00:24:53;22.33;72.66
79494;SHT31;68951;53.130;18.104;2023-08-20T00:27:21;22.32;72.70
79494;SHT31;68951;53.130;18.104;2023-08-20T00:29:48;22.31;72.80
79494;SHT31;68951;53.130;18.104;2023-08-20T00:32:15;22.30;72.83
79494;SHT31;68951;53.130;18.104;2023-08-20T00:34:42;22.28;72.90
79494;SHT31;68951;53.130;18.104;2023-08-20T00:37:08;22.27;72.90
79494;SHT31;68951;53.130;18.104;2023-08-20T00:39:35;22.25;72.93
79494;SHT31;68951;53.130;18.104;2023-08-20T00:42:02;22.24;72.96
79494;SHT31;68951;53.130;18.104;2023-08-20T00:44:30;22.24;72.95
79494;SHT31;68951;53.130;18.104;2023-08-20T00:46:58;22.27;72.97
79494;SHT31;68951;53.130;18.104;2023-08-20T00:49:27;22.25;72.94
79494;SHT31;68951;53.130;18.104;2023-08-20T00:51:54;22.19;72.98
79494;SHT31;68951;53.130;18.104;2023-08-20T00:54:21;22.14;73.07
79494;SHT31;68951;53.130;18.104;2023-08-20T00:56:49;22.10;73.11
79494;SHT31;68951;53.130;18.104;2023-08-20T00:59:17;22.09;73.20
79494;SHT31;68951;53.130;18.104;2023-08-20T01:01:44;22.11;73.21
79494;SHT31;68951;53.130;18.104;2023-08-20T01:04:11;22.11;73.24
79494;SHT31;68951;53.130;18.104;2023-08-20T01:09:24;22.09;73.29
79494;SHT31;68951;53.130;18.104;2023-08-20T01:12:09;22.02;73.28
79494;SHT31;68951;53.130;18.104;2023-08-20T01:14:37;21.97;73.30
79494;SHT31;68951;53.130;18.104;2023-08-20T01:17:04;21.94;73.37
79494;SHT31;68951;53.130;18.104;2023-08-20T01:19:31;21.91;73.40
79494;SHT31;68951;53.130;18.104;2023-08-20T01:28:31;21.87;73.50
79494;SHT31;68951;53.130;18.104;2023-08-20T01:30:47;21.83;73.53
79494;SHT31;68951;53.130;18.104;2023-08-20T01:33:15;21.82;73.54
79494;SHT31;68951;53.130;18.104;2023-08-20T01:35:43;21.79;73.57
79494;SHT31;68951;53.130;18.104;2023-08-20T01:38:09;21.77;73.60
79494;SHT31;68951;53.130;18.104;2023-08-20T01:40:36;21.79;73.60
79494;SHT31;68951;53.130;18.104;2023-08-20T01:43:03;21.75;73.60
79494;SHT31;68951;53.130;18.104;2023-08-20T01:45:30;21.70;73.63
79494;SHT31;68951;53.130;18.104;2023-08-20T01:47:57;21.68;73.70
79494;SHT31;68951;53.130;18.104;2023-08-20T01:50:23;21.66;73.70
79494;SHT31;68951;53.130;18.104;2023-08-20T01:52:50;21.66;73.70
79494;SHT31;68951;53.130;18.104;2023-08-20T01:55:17;21.64;73.74
79494;SHT31;68951;53.130;18.104;2023-08-20T01:57:44;21.63;73.78
79494;SHT31;68951;53.130;18.104;2023-08-20T02:00:11;21.60;73.80
